createdAt,value
2022-12-06T00:01:12.484Z,3.25
2022-12-06T00:03:41.355Z,3.13
2022-12-06T00:06:12.999Z,3.67
2022-12-06T00:08:40.647Z,3.42
2022-12-06T00:11:10.432Z,4.20
2022-12-06T00:13:38.202Z,3.13
2022-12-06T00:16:11.311Z,5.13
2022-12-06T00:18:39.715Z,4.53
2022-12-06T00:21:18.640Z,3.42
2022-12-06T00:23:47.818Z,4.78
2022-12-06T00:26:15.412Z,6.60
2022-12-06T00:28:42.589Z,5.63
2022-12-06T00:31:18.986Z,15.18
2022-12-06T00:33:46.517Z,13.07
2022-12-06T00:36:18.056Z,4.43
2022-12-06T00:38:45.801Z,5.05
2022-12-06T00:41:18.848Z,4.30
2022-12-06T00:43:46.021Z,6.43
2022-12-06T00:46:16.693Z,4.70
2022-12-06T00:48:48.230Z,3.92
2022-12-06T00:51:16.994Z,4.60
2022-12-06T00:53:45.137Z,3.28
2022-12-06T00:56:12.965Z,3.35
2022-12-06T00:58:40.299Z,3.42
2022-12-06T01:01:12.140Z,2.72
2022-12-06T01:03:40.494Z,3.63
2022-12-06T01:06:10.205Z,3.55
2022-12-06T01:08:38.374Z,7.15
2022-12-06T01:11:07.058Z,4.68
2022-12-06T01:13:34.748Z,2.85
2022-12-06T01:16:24.697Z,2.67
2022-12-06T01:18:57.775Z,3.90
2022-12-06T01:21:25.732Z,2.72
2022-12-06T01:23:54.569Z,2.78
2022-12-06T01:26:27.795Z,2.55
2022-12-06T01:28:55.410Z,3.25
2022-12-06T01:31:22.802Z,3.72
2022-12-06T01:33:49.965Z,3.50
2022-12-06T01:36:22.555Z,3.80
2022-12-06T01:38:51.886Z,3.28
2022-12-06T01:41:20.334Z,4.70
2022-12-06T01:43:48.041Z,3.30
2022-12-06T01:46:33.959Z,3.75
2022-12-06T01:49:15.760Z,2.95
2022-12-06T01:51:58.581Z,5.28
2022-12-06T01:54:26.900Z,3.28
2022-12-06T01:56:56.444Z,5.47
2022-12-06T01:59:25.458Z,2.67
2022-12-06T02:01:53.271Z,3.05
2022-12-06T02:04:23.181Z,2.80
2022-12-06T02:06:51.920Z,3.45
2022-12-06T02:09:20.239Z,3.25
2022-12-06T02:11:47.628Z,2.83
2022-12-06T02:14:22.800Z,4.03
2022-12-06T02:17:08.231Z,4.60
2022-12-06T02:20:07.302Z,4.95
2022-12-06T02:23:17.717Z,4.22
2022-12-06T02:26:03.623Z,3.42
2022-12-06T02:28:54.758Z,3.75
2022-12-06T02:31:48.126Z,3.15
2022-12-06T02:34:26.157Z,4.68
2022-12-06T02:37:11.248Z,3.60
2022-12-06T02:39:52.695Z,4.13
2022-12-06T02:42:25.842Z,3.58
2022-12-06T02:45:00.283Z,4.32
2022-12-06T02:47:33.568Z,3.63
2022-12-06T02:50:03.506Z,4.28
2022-12-06T02:52:32.275Z,3.70
2022-12-06T02:55:01.444Z,3.00
2022-12-06T02:57:49.919Z,5.00
2022-12-06T03:00:29.634Z,3.97
2022-12-06T03:03:13.020Z,4.05
2022-12-06T03:06:09.874Z,3.47
2022-12-06T03:08:48.197Z,3.45
2022-12-06T03:11:16.105Z,4.10
2022-12-06T03:14:15.396Z,5.50
2022-12-06T03:16:48.980Z,5.25
2022-12-06T03:19:28.975Z,2.95
2022-12-06T03:22:03.097Z,6.00
2022-12-06T03:24:33.603Z,6.15
2022-12-06T03:27:05.362Z,3.33
2022-12-06T03:29:37.915Z,4.63
2022-12-06T03:32:08.401Z,4.75
2022-12-06T03:34:44.690Z,3.83
2022-12-06T03:37:15.807Z,6.13
2022-12-06T03:39:50.016Z,4.25
2022-12-06T03:42:19.002Z,6.07
2022-12-06T03:44:47.514Z,4.57
2022-12-06T03:48:00.554Z,3.35
2022-12-06T03:50:39.628Z,3.78
2022-12-06T03:53:07.065Z,6.15
2022-12-06T03:55:34.115Z,4.25
2022-12-06T03:58:01.189Z,5.32
2022-12-06T04:00:28.347Z,4.47
2022-12-06T04:02:55.419Z,3.90
2022-12-06T04:05:22.659Z,6.97
2022-12-06T04:07:49.749Z,4.63
2022-12-06T04:10:16.847Z,7.65
2022-12-06T04:13:02.080Z,5.53
2022-12-06T04:15:35.496Z,5.75
2022-12-06T04:18:16.588Z,5.15
2022-12-06T04:21:16.712Z,4.85
2022-12-06T04:23:46.356Z,5.72
2022-12-06T04:26:16.936Z,5.70
2022-12-06T04:29:03.190Z,6.25
2022-12-06T04:31:49.193Z,7.60
2022-12-06T04:34:36.196Z,5.38
2022-12-06T04:37:22.172Z,4.55
2022-12-06T04:39:49.415Z,5.05
2022-12-06T04:42:35.271Z,5.20
2022-12-06T04:45:02.392Z,6.32
2022-12-06T04:47:29.467Z,7.78
2022-12-06T04:49:56.527Z,10.02
2022-12-06T04:52:23.967Z,7.07
2022-12-06T04:54:51.032Z,8.00
2022-12-06T04:57:18.099Z,9.60
2022-12-06T04:59:46.782Z,6.35
2022-12-06T05:02:15.416Z,12.05
2022-12-06T05:04:42.896Z,7.00
2022-12-06T05:07:11.824Z,15.65
2022-12-06T05:09:39.073Z,6.57
2022-12-06T05:12:06.712Z,11.32
2022-12-06T05:14:33.730Z,15.52
2022-12-06T05:17:00.812Z,7.28
2022-12-06T05:19:28.346Z,8.63
2022-12-06T05:21:55.375Z,8.38
2022-12-06T05:24:22.496Z,16.25
2022-12-06T05:26:49.562Z,6.40
2022-12-06T05:29:17.112Z,8.48
2022-12-06T05:31:44.239Z,9.98
2022-12-06T05:34:11.419Z,7.32
2022-12-06T05:36:38.506Z,8.90
2022-12-06T05:39:05.598Z,6.65
2022-12-06T05:41:32.707Z,6.68
2022-12-06T05:43:59.818Z,9.00
2022-12-06T05:46:26.876Z,8.13
2022-12-06T05:48:54.139Z,7.03
2022-12-06T05:51:21.204Z,6.80
2022-12-06T05:53:48.234Z,6.82
2022-12-06T05:56:15.345Z,5.38
2022-12-06T05:58:42.412Z,10.48
2022-12-06T06:01:10.112Z,9.85
2022-12-06T06:03:41.083Z,61.03
2022-12-06T06:06:13.044Z,26.83
2022-12-06T06:08:40.194Z,9.00
2022-12-06T06:11:07.441Z,6.82
2022-12-06T06:13:34.533Z,9.80
2022-12-06T06:16:01.638Z,22.75
2022-12-06T06:18:28.888Z,30.35
2022-12-06T06:20:59.060Z,28.70
2022-12-06T06:23:27.472Z,14.75
2022-12-06T06:25:54.954Z,7.63
2022-12-06T06:28:22.802Z,14.00
2022-12-06T06:30:50.353Z,26.38
2022-12-06T06:33:17.737Z,13.82
2022-12-06T06:35:44.839Z,28.17
2022-12-06T06:38:13.145Z,58.05
2022-12-06T06:40:40.367Z,132.85
2022-12-06T06:43:20.798Z,29.90
2022-12-06T06:46:00.550Z,107.97
2022-12-06T06:48:30.792Z,17.08
2022-12-06T06:51:05.373Z,72.05
2022-12-06T06:53:33.060Z,56.70
2022-12-06T06:56:00.162Z,100.45
2022-12-06T06:58:27.306Z,76.60
2022-12-06T07:00:59.265Z,116.13
2022-12-06T07:03:28.062Z,54.63
2022-12-06T07:05:57.291Z,217.32
2022-12-06T07:08:25.423Z,166.02
2022-12-06T07:10:52.533Z,15.50
2022-12-06T07:13:20.963Z,66.68
2022-12-06T07:15:49.105Z,128.32
2022-12-06T07:18:19.647Z,46.03
2022-12-06T07:20:47.578Z,55.78
2022-12-06T07:23:15.530Z,57.90
2022-12-06T07:25:42.776Z,33.45
2022-12-06T07:28:09.859Z,20.55
2022-12-06T07:30:37.040Z,70.68
2022-12-06T07:33:04.259Z,31.00
2022-12-06T07:35:48.826Z,50.17
2022-12-06T07:38:19.117Z,74.10
2022-12-06T07:43:51.979Z,66.10
2022-12-06T07:46:19.100Z,43.65
2022-12-06T07:48:46.169Z,33.20
2022-12-06T07:51:13.219Z,30.15
2022-12-06T07:53:40.314Z,44.55
2022-12-06T07:56:08.392Z,24.45
2022-12-06T07:58:35.433Z,46.92
2022-12-06T08:01:06.535Z,107.38
2022-12-06T08:03:33.622Z,30.67
2022-12-06T08:06:00.859Z,10.15
2022-12-06T08:08:29.119Z,6.07
2022-12-06T08:11:00.499Z,13.57
2022-12-06T08:13:28.896Z,11.40
2022-12-06T08:15:56.606Z,10.77
2022-12-06T08:18:23.916Z,10.55
2022-12-06T08:20:51.256Z,30.48
2022-12-06T08:23:18.601Z,17.42
2022-12-06T08:25:46.065Z,6.00
2022-12-06T08:28:13.108Z,13.23
2022-12-06T08:30:41.450Z,6.88
2022-12-06T08:33:08.617Z,6.30
2022-12-06T08:35:38.661Z,6.57
2022-12-06T08:38:05.752Z,6.05
2022-12-06T08:40:32.924Z,8.70
2022-12-06T08:43:00.044Z,4.35
2022-12-06T08:45:27.223Z,4.55
2022-12-06T08:47:54.408Z,5.25
2022-12-06T08:50:21.622Z,3.50
2022-12-06T08:52:48.639Z,5.05
2022-12-06T08:55:15.722Z,7.57
2022-12-06T08:57:42.975Z,4.20
2022-12-06T09:00:11.236Z,8.00
2022-12-06T09:02:42.025Z,3.42
2022-12-06T09:05:10.047Z,4.60
2022-12-06T09:07:37.159Z,5.93
2022-12-06T09:10:05.705Z,4.55
2022-12-06T09:12:32.958Z,6.20
2022-12-06T09:15:00.031Z,6.53
2022-12-06T09:17:27.142Z,6.28
2022-12-06T09:19:54.207Z,4.60
2022-12-06T09:22:21.226Z,5.35
2022-12-06T09:24:48.519Z,4.18
2022-12-06T09:27:15.734Z,5.95
2022-12-06T09:29:42.996Z,4.32
2022-12-06T09:32:10.092Z,11.23
2022-12-06T09:34:37.121Z,5.53
2022-12-06T09:37:13.344Z,6.10
2022-12-06T09:39:48.900Z,4.47
2022-12-06T09:42:28.024Z,5.10
2022-12-06T09:45:18.131Z,7.40
2022-12-06T09:48:08.359Z,5.63
2022-12-06T09:50:59.934Z,5.47
2022-12-06T09:56:27.621Z,4.93
2022-12-06T09:59:10.148Z,8.23
2022-12-06T10:01:55.726Z,5.20
2022-12-06T10:04:51.173Z,3.85
2022-12-06T10:07:20.956Z,5.25
2022-12-06T10:10:09.817Z,5.03
2022-12-06T10:12:52.380Z,6.47
2022-12-06T10:15:32.602Z,5.30
2022-12-06T10:18:20.812Z,5.30
2022-12-06T10:20:59.007Z,5.03
2022-12-06T10:23:44.908Z,5.38
2022-12-06T10:26:17.688Z,5.32
2022-12-06T10:28:53.607Z,5.90
2022-12-06T10:31:25.441Z,6.25
2022-12-06T10:33:55.377Z,5.13
2022-12-06T10:36:28.159Z,5.13
2022-12-06T10:39:05.021Z,4.95
2022-12-06T10:41:36.659Z,4.63
2022-12-06T10:44:06.763Z,3.33
2022-12-06T10:47:04.052Z,4.75
2022-12-06T10:49:55.370Z,7.07
2022-12-06T10:52:45.788Z,4.25
2022-12-06T10:55:28.248Z,4.40
2022-12-06T10:58:01.531Z,3.55
2022-12-06T11:00:39.547Z,2.92
2022-12-06T11:03:19.365Z,5.82
2022-12-06T11:05:46.458Z,3.85
2022-12-06T11:08:15.997Z,4.13
2022-12-06T11:10:45.494Z,3.75
2022-12-06T11:13:27.639Z,5.35
2022-12-06T11:16:06.282Z,5.13
2022-12-06T11:18:34.913Z,4.63
2022-12-06T11:21:24.542Z,3.53
2022-12-06T11:24:09.668Z,3.35
2022-12-06T11:26:43.980Z,4.70
2022-12-06T11:29:14.367Z,5.82
2022-12-06T11:31:50.706Z,2.50
2022-12-06T11:34:25.681Z,5.55
2022-12-06T11:36:59.817Z,4.93
2022-12-06T11:39:28.165Z,5.03
2022-12-06T11:41:57.654Z,4.38
2022-12-06T11:44:36.527Z,5.20
2022-12-06T11:47:03.695Z,5.10
2022-12-06T11:49:42.401Z,6.18
2022-12-06T11:52:19.052Z,5.35
2022-12-06T11:54:55.416Z,6.05
2022-12-06T11:57:28.384Z,6.85
2022-12-06T12:00:14.366Z,7.55
2022-12-06T12:02:43.630Z,6.57
2022-12-06T12:05:23.045Z,5.72
2022-12-06T12:07:59.809Z,6.18
2022-12-06T12:10:38.850Z,4.97
2022-12-06T12:13:30.395Z,6.13
2022-12-06T12:16:32.101Z,8.82
2022-12-06T12:21:39.927Z,6.40
2022-12-06T12:24:26.347Z,6.10
2022-12-06T12:26:53.569Z,6.60
2022-12-06T12:29:22.359Z,6.05
2022-12-06T12:32:00.274Z,5.93
2022-12-06T12:34:30.049Z,7.35
2022-12-06T12:37:05.043Z,4.63
2022-12-06T12:39:36.745Z,5.88
2022-12-06T12:42:04.795Z,7.25
2022-12-06T12:44:39.577Z,5.22
2022-12-06T12:47:20.193Z,4.47
2022-12-06T12:50:04.713Z,5.85
2022-12-06T12:52:38.329Z,5.60
2022-12-06T12:55:24.491Z,5.90
2022-12-06T12:57:58.511Z,5.95
2022-12-06T13:00:35.040Z,6.80
2022-12-06T13:03:35.002Z,5.75
2022-12-06T13:06:02.227Z,4.85
2022-12-06T13:08:36.447Z,6.22
2022-12-06T13:11:05.683Z,4.97
2022-12-06T13:13:48.044Z,5.80
2022-12-06T13:16:19.872Z,5.32
2022-12-06T13:18:51.894Z,5.75
2022-12-06T13:21:29.864Z,4.05
2022-12-06T13:24:27.741Z,4.00
2022-12-06T13:27:03.288Z,4.75
2022-12-06T13:29:44.204Z,7.10
2022-12-06T13:32:20.420Z,5.95
2022-12-06T13:35:05.105Z,5.35
2022-12-06T13:37:34.955Z,6.47
2022-12-06T13:40:04.050Z,5.45
2022-12-06T13:42:37.044Z,4.78
2022-12-06T13:45:22.400Z,4.25
2022-12-06T13:47:50.841Z,4.30
2022-12-06T13:50:17.817Z,11.70
2022-12-06T13:52:47.736Z,6.43
2022-12-06T13:55:26.672Z,5.20
2022-12-06T13:57:57.664Z,5.90
2022-12-06T14:00:30.760Z,4.63
2022-12-06T14:03:05.382Z,4.75
2022-12-06T14:08:33.287Z,3.35
2022-12-06T14:11:24.406Z,3.45
2022-12-06T14:13:58.547Z,4.47
2022-12-06T14:16:34.658Z,5.00
2022-12-06T14:19:13.659Z,4.88
2022-12-06T14:21:43.848Z,6.30
2022-12-06T14:24:29.912Z,6.32
2022-12-06T14:27:18.528Z,5.22
2022-12-06T14:30:04.976Z,7.47
2022-12-06T14:32:38.001Z,4.55
2022-12-06T14:35:15.255Z,3.85
2022-12-06T14:37:51.299Z,3.80
2022-12-06T14:40:57.133Z,4.38
2022-12-06T14:43:27.730Z,4.65
2022-12-06T14:45:55.726Z,4.50
2022-12-06T14:48:23.510Z,6.60
2022-12-06T14:50:52.458Z,3.65
2022-12-06T14:53:33.259Z,6.55
2022-12-06T14:56:03.319Z,4.22
2022-12-06T14:58:37.247Z,5.47
2022-12-06T15:01:25.459Z,4.97
2022-12-06T15:04:06.860Z,5.35
2022-12-06T15:09:01.620Z,5.78
2022-12-06T15:11:56.254Z,4.65
2022-12-06T15:14:47.231Z,5.57
2022-12-06T15:17:14.222Z,4.95
2022-12-06T15:19:49.583Z,5.57
2022-12-06T15:22:29.129Z,6.53
2022-12-06T15:25:00.470Z,5.30
2022-12-06T15:29:55.595Z,7.70
2022-12-06T15:32:26.072Z,6.68
2022-12-06T15:34:53.066Z,6.97
2022-12-06T15:40:08.638Z,9.50
2022-12-06T15:42:36.217Z,10.63
2022-12-06T15:45:03.945Z,16.77
2022-12-06T15:47:31.309Z,14.90
2022-12-06T15:49:58.675Z,11.75
2022-12-06T15:52:27.263Z,5.18
2022-12-06T15:54:54.305Z,6.63
2022-12-06T15:57:21.432Z,6.85
2022-12-06T15:59:49.829Z,7.65
2022-12-06T16:02:18.739Z,6.40
2022-12-06T16:04:48.599Z,7.95
2022-12-06T16:07:19.305Z,7.50
2022-12-06T16:09:47.336Z,9.20
2022-12-06T16:12:14.334Z,7.82
2022-12-06T16:14:41.589Z,6.95
2022-12-06T16:17:08.846Z,12.50
2022-12-06T16:19:54.288Z,8.30
2022-12-06T16:22:41.448Z,9.07
2022-12-06T16:25:09.179Z,6.60
2022-12-06T16:27:36.527Z,6.55
2022-12-06T16:30:05.666Z,8.45
2022-12-06T16:32:34.590Z,6.32
2022-12-06T16:35:01.828Z,3.95
2022-12-06T16:37:29.208Z,25.45
2022-12-06T16:39:56.376Z,9.63
2022-12-06T16:42:23.633Z,10.55
2022-12-06T16:44:53.371Z,6.57
2022-12-06T16:49:48.318Z,5.07
2022-12-06T16:52:16.914Z,3.88
2022-12-06T16:54:44.300Z,6.47
2022-12-06T16:57:12.995Z,6.03
2022-12-06T16:59:40.750Z,5.03
2022-12-06T17:02:25.313Z,5.95
2022-12-06T17:04:52.560Z,5.78
2022-12-06T17:07:19.627Z,4.88
2022-12-06T17:09:46.880Z,5.88
2022-12-06T17:12:18.400Z,6.82
2022-12-06T17:14:46.235Z,5.15
2022-12-06T17:17:22.221Z,6.38
2022-12-06T17:19:51.002Z,5.80
2022-12-06T17:22:19.394Z,5.28
2022-12-06T17:24:46.955Z,4.85
2022-12-06T17:27:15.818Z,7.57
2022-12-06T17:29:44.662Z,11.35
2022-12-06T17:32:12.999Z,13.27
2022-12-06T17:34:40.500Z,20.58
2022-12-06T17:37:07.778Z,11.07
2022-12-06T17:39:35.459Z,10.98
2022-12-06T17:42:22.079Z,11.35
2022-12-06T17:44:51.913Z,10.38
2022-12-06T17:47:19.675Z,13.63
2022-12-06T17:49:48.515Z,11.45
2022-12-06T17:52:16.005Z,12.82
2022-12-06T17:54:43.124Z,11.48
2022-12-06T17:57:17.693Z,10.95
2022-12-06T17:59:47.163Z,11.63
2022-12-06T18:02:19.829Z,11.13
2022-12-06T18:04:51.109Z,9.25
2022-12-06T18:07:19.115Z,8.00
2022-12-06T18:09:46.620Z,6.72
2022-12-06T18:12:16.988Z,11.57
2022-12-06T18:14:45.727Z,8.63
2022-12-06T18:17:13.545Z,16.02
2022-12-06T18:19:41.851Z,17.77
2022-12-06T18:22:12.102Z,13.52
2022-12-06T18:24:39.718Z,10.30
2022-12-06T18:27:15.516Z,10.15
2022-12-06T18:29:43.236Z,8.32
2022-12-06T18:32:12.780Z,11.68
2022-12-06T18:34:40.390Z,8.55
2022-12-06T18:37:08.889Z,12.07
2022-12-06T18:39:36.553Z,12.50
2022-12-06T18:42:04.236Z,14.23
2022-12-06T18:44:32.585Z,26.80
2022-12-06T18:47:01.851Z,22.85
2022-12-06T18:49:29.758Z,34.78
2022-12-06T18:51:57.358Z,26.27
2022-12-06T18:54:27.399Z,21.08
2022-12-06T18:56:57.543Z,20.88
2022-12-06T18:59:34.575Z,25.50
2022-12-06T19:02:02.401Z,23.20
2022-12-06T19:04:30.379Z,16.63
2022-12-06T19:06:58.208Z,11.82
2022-12-06T19:09:26.606Z,9.95
2022-12-06T19:11:55.356Z,23.83
2022-12-06T19:14:23.747Z,13.13
2022-12-06T19:16:52.486Z,10.90
2022-12-06T19:19:23.760Z,10.02
2022-12-06T19:21:53.576Z,8.63
2022-12-06T19:24:24.557Z,9.68
2022-12-06T19:27:01.397Z,38.15
2022-12-06T19:29:31.307Z,29.05
2022-12-06T19:31:59.072Z,22.45
2022-12-06T19:34:34.657Z,18.02
2022-12-06T19:37:03.039Z,13.98
2022-12-06T19:39:34.229Z,11.93
2022-12-06T19:42:19.847Z,12.45
2022-12-06T19:44:47.253Z,13.30
2022-12-06T19:47:14.767Z,10.10
2022-12-06T19:49:42.254Z,13.00
2022-12-06T19:52:10.055Z,12.98
2022-12-06T19:54:37.766Z,9.80
2022-12-06T19:57:07.642Z,11.02
2022-12-06T19:59:36.742Z,15.70
2022-12-06T20:02:04.985Z,10.30
2022-12-06T20:04:35.573Z,10.52
2022-12-06T20:07:06.141Z,11.07
2022-12-06T20:09:34.268Z,18.27
2022-12-06T20:12:04.631Z,82.10
2022-12-06T20:14:46.701Z,22.77
2022-12-06T20:17:19.795Z,15.07
2022-12-06T20:19:49.129Z,12.70
2022-12-06T20:22:19.034Z,11.48
2022-12-06T20:24:50.446Z,19.83
2022-12-06T20:27:17.588Z,11.80
2022-12-06T20:29:44.878Z,25.38
2022-12-06T20:32:12.302Z,30.13
2022-12-06T20:34:39.574Z,27.05
2022-12-06T20:37:11.164Z,17.45
2022-12-06T20:39:38.539Z,14.30
2022-12-06T20:42:07.304Z,17.30
2022-12-06T20:44:35.328Z,14.30
2022-12-06T20:47:04.218Z,12.50
2022-12-06T20:49:31.476Z,19.40
2022-12-06T20:52:00.687Z,29.20
2022-12-06T20:54:27.785Z,35.63
2022-12-06T20:56:54.869Z,23.20
2022-12-06T20:59:21.984Z,189.10
2022-12-06T21:01:49.532Z,112.45
2022-12-06T21:04:17.368Z,88.13
2022-12-06T21:06:44.770Z,40.47
2022-12-06T21:09:11.879Z,25.08
2022-12-06T21:11:39.341Z,17.00
2022-12-06T21:14:06.708Z,15.35
2022-12-06T21:16:35.516Z,14.38
2022-12-06T21:19:05.355Z,14.32
2022-12-06T21:21:35.147Z,9.60
2022-12-06T21:24:04.500Z,12.52
2022-12-06T21:26:32.905Z,13.30
2022-12-06T21:29:00.403Z,13.55
2022-12-06T21:31:29.721Z,15.02
2022-12-06T21:33:57.385Z,11.32
2022-12-06T21:36:25.100Z,13.80
2022-12-06T21:38:53.076Z,12.50
2022-12-06T21:41:21.043Z,10.30
2022-12-06T21:43:48.635Z,11.60
2022-12-06T21:46:18.313Z,15.65
2022-12-06T21:48:49.394Z,13.63
2022-12-06T21:51:17.041Z,11.60
2022-12-06T21:53:44.705Z,13.88
2022-12-06T21:56:22.356Z,14.85
2022-12-06T21:58:50.185Z,17.83
2022-12-06T22:01:24.391Z,26.38
2022-12-06T22:03:53.523Z,21.92
2022-12-06T22:06:21.629Z,21.60
2022-12-06T22:08:50.097Z,19.35
2022-12-06T22:11:19.812Z,14.90
2022-12-06T22:13:48.130Z,20.08
2022-12-06T22:16:16.848Z,15.35
2022-12-06T22:18:46.212Z,17.90
2022-12-06T22:21:16.994Z,17.27
2022-12-06T22:23:46.050Z,8.57
2022-12-06T22:26:15.630Z,15.05
2022-12-06T22:28:43.187Z,10.38
2022-12-06T22:31:17.044Z,19.90
2022-12-06T22:33:44.402Z,14.02
2022-12-06T22:36:13.041Z,9.90
2022-12-06T22:38:40.614Z,13.95
2022-12-06T22:41:09.092Z,13.75
2022-12-06T22:43:36.919Z,12.57
2022-12-06T22:46:05.607Z,12.43
2022-12-06T22:48:32.757Z,13.00
2022-12-06T22:51:13.410Z,9.93
2022-12-06T22:53:42.187Z,10.98
2022-12-06T22:56:10.575Z,11.65
2022-12-06T22:58:38.486Z,11.20
2022-12-06T23:01:17.311Z,9.23
2022-12-06T23:03:46.648Z,11.95
2022-12-06T23:06:19.676Z,11.80
2022-12-06T23:08:47.672Z,8.85
2022-12-06T23:11:18.089Z,10.82
2022-12-06T23:13:45.622Z,6.90
2022-12-06T23:16:15.964Z,14.32
2022-12-06T23:18:49.520Z,9.27
2022-12-06T23:21:25.532Z,8.07
2022-12-06T23:23:55.080Z,7.47
2022-12-06T23:26:24.891Z,11.85
2022-12-06T23:28:52.755Z,9.05
2022-12-06T23:31:22.426Z,8.80
2022-12-06T23:33:54.148Z,8.60
2022-12-06T23:36:24.212Z,11.50
2022-12-06T23:38:51.942Z,9.88
2022-12-06T23:41:23.552Z,8.48
2022-12-06T23:43:51.485Z,8.88
2022-12-06T23:46:24.053Z,8.85
2022-12-06T23:48:52.114Z,8.23
2022-12-06T23:51:24.476Z,9.15
2022-12-06T23:53:54.346Z,11.38
2022-12-06T23:56:22.729Z,7.63
2022-12-06T23:58:51.396Z,15.90
